Time;durP1;ratioP1;P1;durP2;ratioP2;P2;SDS_P1;SDS_P2;PMS_P1;PMS_P2;Temp;Humidity;BMP_temperature;BMP_pressure;BME280_temperature;BME280_humidity;BME280_pressure;Samples;Min_cycle;Max_cycle;Signal;HPM_P1;HPM_P2
2023/11/23 00:00:10;;;;;;;19.10;5.00;;;;;;;;;;4991966;28;20038;-66
2023/11/23 00:02:36;;;;;;;14.88;4.80;;;;;;;;;;4990390;28;20081;-66
2023/11/23 00:05:01;;;;;;;9.38;3.33;;;;;;;;;;4992082;28;20034;-66
2023/11/23 00:07:26;;;;;;;28.30;8.10;;;;;;;;;;4991954;28;20018;-66
2023/11/23 00:09:51;;;;;;;28.95;8.68;;;;;;;;;;4992238;28;20053;-66
2023/11/23 00:12:18;;;;;;;17.17;5.43;;;;;;;;;;4990621;28;20027;-66
2023/11/23 00:14:43;;;;;;;21.38;5.15;;;;;;;;;;4987642;28;20335;-66
2023/11/23 00:17:09;;;;;;;8.77;3.55;;;;;;;;;;4987166;28;20386;-66
2023/11/23 00:19:34;;;;;;;13.48;5.53;;;;;;;;;;4979142;28;20015;-66
2023/11/23 00:21:59;;;;;;;14.43;5.15;;;;;;;;;;4980417;28;20042;-67
2023/11/23 00:24:24;;;;;;;9.07;3.92;;;;;;;;;;4978264;28;20081;-66
2023/11/23 00:26:51;;;;;;;11.40;3.78;;;;;;;;;;4980581;28;20027;-66
2023/11/23 00:29:16;;;;;;;10.43;2.90;;;;;;;;;;4988042;28;20473;-66
2023/11/23 00:31:41;;;;;;;12.27;3.55;;;;;;;;;;4991357;28;20030;-66
2023/11/23 00:34:06;;;;;;;12.37;5.10;;;;;;;;;;4991723;28;20481;-66
2023/11/23 00:36:32;;;;;;;11.60;4.38;;;;;;;;;;4989193;28;20265;-66
2023/11/23 00:38:57;;;;;;;12.50;4.60;;;;;;;;;;4978986;28;20054;-65
2023/11/23 00:41:23;;;;;;;17.13;6.20;;;;;;;;;;4984471;28;20099;-66
2023/11/23 00:43:48;;;;;;;9.50;2.20;;;;;;;;;;4992057;28;20049;-66
2023/11/23 00:46:13;;;;;;;11.82;5.43;;;;;;;;;;4989275;28;20113;-66
2023/11/23 00:48:38;;;;;;;11.27;3.95;;;;;;;;;;4991192;28;20030;-66
2023/11/23 00:51:03;;;;;;;13.17;5.23;;;;;;;;;;4986210;28;20027;-66
2023/11/23 00:53:29;;;;;;;17.85;5.78;;;;;;;;;;4986194;28;20277;-67
2023/11/23 00:55:57;;;;;;;10.02;4.57;;;;;;;;;;4976874;28;20054;-66
2023/11/23 00:58:22;;;;;;;5.93;2.95;;;;;;;;;;4990435;28;20520;-66
2023/11/23 01:00:48;;;;;;;12.15;3.67;;;;;;;;;;4990804;28;20030;-66
2023/11/23 01:03:13;;;;;;;14.40;5.35;;;;;;;;;;4989252;28;20056;-66
2023/11/23 01:05:38;;;;;;;15.73;5.22;;;;;;;;;;4988912;28;20054;-67
2023/11/23 01:08:04;;;;;;;13.82;4.97;;;;;;;;;;4984967;28;20042;-66
2023/11/23 01:10:29;;;;;;;17.60;5.07;;;;;;;;;;4987344;28;20072;-66
2023/11/23 01:12:58;;;;;;;20.83;7.55;;;;;;;;;;4981365;28;20546;-66
2023/11/23 01:15:24;;;;;;;19.20;7.05;;;;;;;;;;4990292;28;20112;-66
2023/11/23 01:17:49;;;;;;;12.75;4.90;;;;;;;;;;4988398;28;20617;-66
2023/11/23 01:20:14;;;;;;;15.50;5.45;;;;;;;;;;4990686;28;20417;-66
2023/11/23 01:22:39;;;;;;;10.18;5.30;;;;;;;;;;4989469;28;20072;-66
2023/11/23 01:25:08;;;;;;;10.82;4.72;;;;;;;;;;4990720;28;20096;-66
2023/11/23 01:27:33;;;;;;;15.05;5.13;;;;;;;;;;4988396;28;20067;-66
2023/11/23 01:29:59;;;;;;;15.45;4.75;;;;;;;;;;4990850;28;20581;-66
2023/11/23 01:32:24;;;;;;;14.10;4.97;;;;;;;;;;4988987;28;20022;-65
2023/11/23 01:34:49;;;;;;;17.58;5.43;;;;;;;;;;4985922;28;20061;-66
2023/11/23 01:37:15;;;;;;;11.43;4.87;;;;;;;;;;4991581;28;20026;-66
2023/11/23 01:39:40;;;;;;;13.95;5.47;;;;;;;;;;4998896;28;20301;-66
2023/11/23 01:42:05;;;;;;;16.20;5.38;;;;;;;;;;4994606;28;20121;-66
2023/11/23 01:44:30;;;;;;;13.50;5.03;;;;;;;;;;4991721;28;20034;-66
2023/11/23 01:46:55;;;;;;;15.02;4.38;;;;;;;;;;4989525;28;20019;-66
2023/11/23 01:49:22;;;;;;;8.85;4.53;;;;;;;;;;4983606;28;20022;-66
2023/11/23 01:51:47;;;;;;;11.00;4.63;;;;;;;;;;5001956;28;20423;-66
2023/11/23 01:54:13;;;;;;;7.18;3.72;;;;;;;;;;4990366;28;20022;-66
2023/11/23 01:56:39;;;;;;;13.82;4.97;;;;;;;;;;4989155;28;20053;-66
2023/11/23 01:59:04;;;;;;;12.05;4.40;;;;;;;;;;4989194;28;20022;-66
2023/11/23 02:01:29;;;;;;;15.07;5.55;;;;;;;;;;4986030;28;20034;-66
2023/11/23 02:03:55;;;;;;;14.27;5.40;;;;;;;;;;4990832;28;20030;-66
2023/11/23 02:06:20;;;;;;;12.20;4.30;;;;;;;;;;4986041;28;20073;-66
2023/11/23 02:08:46;;;;;;;16.07;5.47;;;;;;;;;;4989540;28;20018;-66
2023/11/23 02:11:11;;;;;;;12.05;5.55;;;;;;;;;;4990211;28;20312;-66
2023/11/23 02:13:37;;;;;;;13.25;6.15;;;;;;;;;;4989060;28;20032;-66
2023/11/23 02:16:03;;;;;;;13.23;5.57;;;;;;;;;;4987853;28;20054;-66
2023/11/23 02:18:34;;;;;;;11.40;5.57;;;;;;;;;;4989366;28;20057;-66
2023/11/23 02:20:59;;;;;;;13.05;5.07;;;;;;;;;;4984023;28;20034;-67
2023/11/23 02:23:25;;;;;;;14.57;5.60;;;;;;;;;;4989835;28;20026;-66
2023/11/23 02:25:50;;;;;;;11.55;5.90;;;;;;;;;;4989735;28;20268;-66
2023/11/23 02:28:15;;;;;;;18.13;5.95;;;;;;;;;;4989908;28;20600;-67
2023/11/23 02:30:41;;;;;;;14.90;5.75;;;;;;;;;;4988331;28;20041;-66
2023/11/23 02:33:08;;;;;;;10.37;4.97;;;;;;;;;;4989629;28;20026;-66
2023/11/23 02:35:33;;;;;;;18.98;6.25;;;;;;;;;;4983170;28;20301;-66
2023/11/23 02:37:58;;;;;;;22.15;6.25;;;;;;;;;;4984454;28;20061;-66
2023/11/23 02:40:23;;;;;;;16.13;5.65;;;;;;;;;;4983388;28;20044;-66
2023/11/23 02:42:49;;;;;;;13.77;5.87;;;;;;;;;;4989898;28;20034;-67
2023/11/23 02:45:14;;;;;;;18.17;6.07;;;;;;;;;;4985895;28;20428;-67
2023/11/23 02:47:39;;;;;;;15.20;6.05;;;;;;;;;;4981278;28;20030;-64
2023/11/23 02:50:05;;;;;;;15.95;6.63;;;;;;;;;;4980600;28;20504;-64
2023/11/23 02:52:30;;;;;;;12.48;5.57;;;;;;;;;;4980521;28;20536;-64
2023/11/23 02:54:55;;;;;;;14.65;5.97;;;;;;;;;;4989312;28;20030;-64
2023/11/23 02:57:21;;;;;;;19.33;6.72;;;;;;;;;;4989680;28;20034;-64
2023/11/23 02:59:46;;;;;;;19.30;6.80;;;;;;;;;;4981235;28;20117;-64
2023/11/23 03:02:11;;;;;;;14.38;5.70;;;;;;;;;;4988117;28;20303;-67
2023/11/23 03:04:37;;;;;;;19.80;6.77;;;;;;;;;;4982781;28;20469;-67
2023/11/23 03:07:02;;;;;;;15.02;6.10;;;;;;;;;;4987929;28;20277;-67
2023/11/23 03:09:28;;;;;;;20.08;6.35;;;;;;;;;;4978961;28;20033;-66
2023/11/23 03:11:53;;;;;;;16.52;6.10;;;;;;;;;;4981575;28;20596;-66
2023/11/23 03:14:18;;;;;;;21.65;6.95;;;;;;;;;;4984589;28;20050;-66
2023/11/23 03:16:44;;;;;;;17.92;7.35;;;;;;;;;;4981019;28;20041;-66
2023/11/23 03:19:09;;;;;;;18.95;7.05;;;;;;;;;;4980698;28;20117;-67
2023/11/23 03:21:35;;;;;;;12.75;6.38;;;;;;;;;;4987368;28;20104;-66
2023/11/23 03:24:00;;;;;;;18.63;7.53;;;;;;;;;;4989369;28;20077;-67
2023/11/23 03:26:25;;;;;;;17.77;6.60;;;;;;;;;;4988210;28;20328;-67
2023/11/23 03:28:50;;;;;;;14.55;5.65;;;;;;;;;;4978873;28;20262;-67
2023/11/23 03:31:15;;;;;;;15.70;6.95;;;;;;;;;;4987589;28;20030;-67
2023/11/23 03:33:41;;;;;;;15.07;6.87;;;;;;;;;;4992102;28;20440;-67
2023/11/23 03:36:06;;;;;;;22.05;7.80;;;;;;;;;;4988118;28;20296;-67
2023/11/23 03:38:31;;;;;;;20.60;7.53;;;;;;;;;;4987861;28;20544;-66
2023/11/23 03:40:57;;;;;;;21.10;7.63;;;;;;;;;;4983968;28;20474;-67
2023/11/23 03:43:23;;;;;;;22.00;10.00;;;;;;;;;;4989641;28;20289;-66
2023/11/23 03:45:48;;;;;;;21.50;8.18;;;;;;;;;;4992598;28;20061;-67
2023/11/23 03:48:13;;;;;;;15.80;7.72;;;;;;;;;;4982852;28;20528;-67
2023/11/23 03:50:38;;;;;;;21.52;7.20;;;;;;;;;;4981219;28;20076;-67
2023/11/23 03:53:04;;;;;;;22.08;7.10;;;;;;;;;;4979663;28;20121;-67
2023/11/23 03:55:29;;;;;;;18.15;7.65;;;;;;;;;;4987136;28;20396;-67
2023/11/23 03:57:54;;;;;;;22.80;8.35;;;;;;;;;;4984195;28;20030;-66
2023/11/23 04:00:21;;;;;;;22.77;8.48;;;;;;;;;;4985283;28;20022;-67
2023/11/23 04:02:46;;;;;;;28.60;9.00;;;;;;;;;;4981014;28;20089;-66
2023/11/23 04:05:16;;;;;;;19.30;7.55;;;;;;;;;;4987997;28;20030;-67
2023/11/23 04:07:41;;;;;;;19.85;8.55;;;;;;;;;;4989592;28;20433;-67
2023/11/23 04:10:07;;;;;;;27.13;9.20;;;;;;;;;;4982698;28;20158;-66
2023/11/23 04:12:32;;;;;;;25.98;8.20;;;;;;;;;;4981571;28;20306;-67
2023/11/23 04:14:57;;;;;;;22.02;7.97;;;;;;;;;;4988570;28;20018;-66
2023/11/23 04:17:22;;;;;;;19.13;8.23;;;;;;;;;;4992410;28;20065;-66
2023/11/23 04:19:48;;;;;;;14.90;7.00;;;;;;;;;;4984531;28;20030;-66
2023/11/23 04:22:13;;;;;;;27.23;9.10;;;;;;;;;;4987212;28;20652;-66
2023/11/23 04:24:39;;;;;;;17.80;7.95;;;;;;;;;;4989933;28;20405;-67
2023/11/23 04:27:05;;;;;;;21.63;8.63;;;;;;;;;;4979131;28;20033;-66
2023/11/23 04:29:30;;;;;;;27.42;8.60;;;;;;;;;;4991649;28;20098;-66
2023/11/23 04:31:55;;;;;;;19.98;7.75;;;;;;;;;;4991351;28;20478;-66
2023/11/23 04:34:21;;;;;;;20.00;8.50;;;;;;;;;;4988713;28;20572;-67
2023/11/23 04:36:46;;;;;;;21.05;9.40;;;;;;;;;;4982214;28;20617;-67
2023/11/23 04:39:12;;;;;;;23.75;8.93;;;;;;;;;;4987227;28;20125;-67
2023/11/23 04:41:38;;;;;;;22.48;9.07;;;;;;;;;;4982844;28;20061;-67
2023/11/23 04:44:03;;;;;;;24.50;9.77;;;;;;;;;;4985043;28;20165;-67
2023/11/23 04:46:29;;;;;;;27.67;9.95;;;;;;;;;;4989395;28;20046;-66
2023/11/23 04:48:54;;;;;;;27.00;12.77;;;;;;;;;;4989658;28;20500;-67
2023/11/23 04:51:19;;;;;;;28.98;11.65;;;;;;;;;;4990000;28;20491;-67
2023/11/23 04:53:44;;;;;;;32.00;13.87;;;;;;;;;;4983467;28;20029;-67
2023/11/23 04:56:11;;;;;;;30.13;12.97;;;;;;;;;;4985198;28;20875;-67
2023/11/23 04:58:36;;;;;;;27.10;12.95;;;;;;;;;;4990547;28;20257;-66
2023/11/23 05:01:01;;;;;;;36.47;14.63;;;;;;;;;;4990637;28;20056;-67
2023/11/23 05:03:30;;;;;;;34.72;13.57;;;;;;;;;;4991256;28;20026;-67
2023/11/23 05:05:55;;;;;;;25.38;11.43;;;;;;;;;;4988878;28;20066;-67
2023/11/23 05:08:20;;;;;;;34.03;14.70;;;;;;;;;;4986852;28;20050;-66
2023/11/23 05:10:46;;;;;;;40.78;15.15;;;;;;;;;;4978926;28;20093;-67
2023/11/23 05:13:12;;;;;;;29.40;14.23;;;;;;;;;;4987191;28;20114;-67
2023/11/23 05:15:37;;;;;;;42.17;15.63;;;;;;;;;;4991438;28;20093;-67
2023/11/23 05:18:03;;;;;;;38.17;16.08;;;;;;;;;;4984378;28;20493;-67
2023/11/23 05:20:28;;;;;;;32.97;14.48;;;;;;;;;;4986325;28;20069;-67
2023/11/23 05:22:53;;;;;;;43.10;17.92;;;;;;;;;;4985828;28;20023;-66
2023/11/23 05:25:19;;;;;;;18.50;7.73;;;;;;;;;;4990414;28;20033;-66
2023/11/23 05:27:44;;;;;;;32.55;14.00;;;;;;;;;;4990607;28;20261;-67
2023/11/23 05:30:09;;;;;;;33.13;14.45;;;;;;;;;;4989810;28;20025;-66
2023/11/23 05:32:35;;;;;;;38.20;16.52;;;;;;;;;;4988736;28;20045;-66
2023/11/23 05:35:00;;;;;;;39.63;16.10;;;;;;;;;;4982186;28;20049;-66
2023/11/23 05:37:25;;;;;;;35.70;13.23;;;;;;;;;;4985581;28;20273;-67
2023/11/23 05:39:50;;;;;;;33.88;13.68;;;;;;;;;;4982279;28;20356;-66
2023/11/23 05:42:15;;;;;;;31.13;14.63;;;;;;;;;;4986666;28;20437;-67
2023/11/23 05:44:41;;;;;;;38.77;14.43;;;;;;;;;;4983664;28;20065;-67
2023/11/23 05:47:06;;;;;;;30.42;14.95;;;;;;;;;;4984652;28;20253;-67
2023/11/23 05:49:31;;;;;;;39.28;15.13;;;;;;;;;;4969515;28;20022;-68
2023/11/23 05:51:56;;;;;;;39.67;15.48;;;;;;;;;;4982827;28;20014;-67
2023/11/23 05:54:21;;;;;;;36.93;17.70;;;;;;;;;;4981585;28;20030;-66
2023/11/23 05:56:48;;;;;;;35.42;14.52;;;;;;;;;;4984560;28;20433;-66
2023/11/23 05:59:13;;;;;;;37.60;16.27;;;;;;;;;;4984663;28;20113;-67
2023/11/23 06:01:38;;;;;;;38.10;15.55;;;;;;;;;;4985866;28;20110;-67
2023/11/23 06:04:03;;;;;;;39.40;16.10;;;;;;;;;;4988221;28;20026;-67
2023/11/23 06:06:29;;;;;;;35.50;15.93;;;;;;;;;;4987638;28;21087;-67
2023/11/23 06:08:54;;;;;;;35.97;16.05;;;;;;;;;;4982312;28;20516;-67
2023/11/23 06:11:19;;;;;;;32.40;16.88;;;;;;;;;;4986519;28;20032;-66
2023/11/23 06:13:45;;;;;;;44.40;17.98;;;;;;;;;;4986333;28;20394;-67
2023/11/23 06:16:11;;;;;;;40.53;18.08;;;;;;;;;;4987126;28;20022;-66
2023/11/23 06:18:36;;;;;;;49.65;20.38;;;;;;;;;;4987760;28;20449;-66
2023/11/23 06:21:01;;;;;;;39.13;18.10;;;;;;;;;;4985923;28;20038;-66
2023/11/23 06:23:28;;;;;;;42.70;17.45;;;;;;;;;;4986235;28;20855;-67
2023/11/23 06:25:53;;;;;;;40.78;18.05;;;;;;;;;;4984197;28;20026;-67
2023/11/23 06:28:18;;;;;;;37.67;16.40;;;;;;;;;;4987391;28;20529;-66
2023/11/23 06:30:44;;;;;;;40.53;16.37;;;;;;;;;;4984521;28;20356;-67
2023/11/23 06:33:09;;;;;;;44.10;17.70;;;;;;;;;;4984635;28;20265;-67
2023/11/23 06:35:35;;;;;;;47.40;19.50;;;;;;;;;;4987855;28;20026;-67
2023/11/23 06:38:00;;;;;;;48.55;19.52;;;;;;;;;;4987996;28;20022;-66
2023/11/23 06:40:26;;;;;;;43.72;16.85;;;;;;;;;;4984038;28;20038;-67
2023/11/23 06:42:51;;;;;;;44.63;18.58;;;;;;;;;;4979824;28;20092;-66
2023/11/23 06:45:16;;;;;;;26.23;11.00;;;;;;;;;;4981571;28;20063;-67
2023/11/23 06:47:42;;;;;;;28.85;12.95;;;;;;;;;;4983660;28;20018;-66
2023/11/23 06:50:08;;;;;;;44.55;17.25;;;;;;;;;;4986781;28;20031;-67
2023/11/23 06:52:33;;;;;;;37.03;17.60;;;;;;;;;;4985620;28;20026;-66
2023/11/23 06:54:58;;;;;;;36.80;15.88;;;;;;;;;;4982678;28;20031;-67
2023/11/23 06:57:23;;;;;;;41.60;19.03;;;;;;;;;;4987524;28;20102;-67
2023/11/23 06:59:48;;;;;;;41.78;18.83;;;;;;;;;;4985163;28;20781;-67
2023/11/23 07:02:14;;;;;;;46.33;20.92;;;;;;;;;;4988701;28;20070;-67
2023/11/23 07:04:40;;;;;;;48.87;23.33;;;;;;;;;;4982534;28;20510;-67
2023/11/23 07:07:06;;;;;;;46.67;21.85;;;;;;;;;;4986598;28;20298;-66
2023/11/23 07:09:31;;;;;;;45.22;22.23;;;;;;;;;;4987605;28;20540;-66
2023/11/23 07:11:58;;;;;;;48.80;20.55;;;;;;;;;;4987733;28;20152;-66
2023/11/23 07:14:23;;;;;;;41.50;22.15;;;;;;;;;;4993838;28;20041;-66
2023/11/23 07:16:51;;;;;;;46.10;21.17;;;;;;;;;;4986717;28;20019;-66
2023/11/23 07:19:16;;;;;;;45.92;19.20;;;;;;;;;;4991231;28;20026;-66
2023/11/23 07:21:42;;;;;;;40.40;16.88;;;;;;;;;;4990282;28;20026;-66
2023/11/23 07:24:07;;;;;;;43.40;17.52;;;;;;;;;;4995887;28;20109;-67
2023/11/23 07:26:33;;;;;;;48.47;19.98;;;;;;;;;;4992157;28;20017;-66
2023/11/23 07:28:59;;;;;;;46.10;21.27;;;;;;;;;;4992648;28;20014;-66
2023/11/23 07:31:24;;;;;;;41.40;18.63;;;;;;;;;;4992946;28;20045;-66
2023/11/23 07:33:49;;;;;;;47.07;20.33;;;;;;;;;;4991715;28;20859;-67
2023/11/23 07:36:14;;;;;;;37.97;15.55;;;;;;;;;;4991867;28;20293;-67
2023/11/23 07:38:41;;;;;;;45.07;18.83;;;;;;;;;;4989836;28;20023;-66
2023/11/23 07:41:10;;;;;;;42.92;17.85;;;;;;;;;;4984499;28;20800;-66
2023/11/23 07:43:35;;;;;;;30.27;14.60;;;;;;;;;;4992765;28;20157;-66
2023/11/23 07:46:01;;;;;;;38.38;16.05;;;;;;;;;;4987902;28;20117;-66
2023/11/23 07:48:26;;;;;;;18.70;9.13;;;;;;;;;;4989792;28;20021;-67
2023/11/23 07:50:51;;;;;;;29.13;14.20;;;;;;;;;;4984589;28;20161;-67
2023/11/23 07:53:17;;;;;;;40.40;14.60;;;;;;;;;;4987407;28;20786;-66
2023/11/23 07:55:43;;;;;;;37.33;13.88;;;;;;;;;;4994760;28;20264;-67
2023/11/23 07:58:08;;;;;;;16.25;7.22;;;;;;;;;;4982953;28;20030;-66
2023/11/23 08:00:37;;;;;;;29.63;13.00;;;;;;;;;;4990536;28;20117;-67
2023/11/23 08:03:02;;;;;;;35.20;15.15;;;;;;;;;;4986128;28;20027;-66
2023/11/23 08:05:27;;;;;;;29.38;13.25;;;;;;;;;;4990341;28;20027;-66
2023/11/23 08:07:53;;;;;;;38.93;16.00;;;;;;;;;;4985152;28;20026;-66
2023/11/23 08:10:18;;;;;;;35.10;16.50;;;;;;;;;;4986695;28;20288;-66
2023/11/23 08:12:43;;;;;;;38.38;14.15;;;;;;;;;;4985641;28;20030;-66
2023/11/23 08:15:12;;;;;;;28.15;13.23;;;;;;;;;;4983620;28;20118;-66
2023/11/23 08:17:38;;;;;;;15.90;8.32;;;;;;;;;;4983606;28;20085;-67
2023/11/23 08:20:07;;;;;;;25.42;10.60;;;;;;;;;;4990964;28;20493;-66
2023/11/23 08:22:32;;;;;;;35.67;15.38;;;;;;;;;;4985194;28;20030;-66
2023/11/23 08:24:57;;;;;;;26.53;11.20;;;;;;;;;;4982199;28;20541;-66
2023/11/23 08:27:24;;;;;;;28.35;13.50;;;;;;;;;;4985224;28;20273;-66
2023/11/23 08:29:49;;;;;;;38.80;16.58;;;;;;;;;;4984185;28;20018;-66
2023/11/23 08:32:15;;;;;;;35.20;14.35;;;;;;;;;;4985249;28;20109;-66
2023/11/23 08:34:40;;;;;;;27.00;12.55;;;;;;;;;;4989339;28;20493;-66
2023/11/23 08:37:06;;;;;;;32.23;13.80;;;;;;;;;;4971470;28;20031;-66
2023/11/23 08:39:31;;;;;;;33.33;13.68;;;;;;;;;;4984999;28;20289;-67
2023/11/23 08:41:56;;;;;;;33.37;13.27;;;;;;;;;;4982673;28;20053;-66
2023/11/23 08:44:21;;;;;;;33.88;13.48;;;;;;;;;;4990799;28;20376;-66
2023/11/23 08:46:46;;;;;;;27.60;13.50;;;;;;;;;;4986578;28;20025;-66
2023/11/23 08:49:12;;;;;;;40.17;16.50;;;;;;;;;;4985544;28;20274;-66
2023/11/23 08:51:38;;;;;;;39.80;15.85;;;;;;;;;;4991168;28;20321;-66
2023/11/23 08:54:03;;;;;;;31.10;14.85;;;;;;;;;;4987000;28;20022;-66
2023/11/23 08:56:28;;;;;;;23.13;11.65;;;;;;;;;;4976954;28;20026;-66
2023/11/23 08:58:54;;;;;;;36.05;15.35;;;;;;;;;;4974854;28;20379;-65
2023/11/23 09:01:19;;;;;;;23.27;8.57;;;;;;;;;;4984353;28;20357;-66
2023/11/23 09:03:44;;;;;;;30.27;11.07;;;;;;;;;;4998543;28;20033;-66
2023/11/23 09:06:09;;;;;;;24.55;11.30;;;;;;;;;;4988999;28;20266;-66
2023/11/23 09:08:35;;;;;;;31.92;15.15;;;;;;;;;;4972283;28;20158;-66
2023/11/23 09:11:00;;;;;;;39.60;14.52;;;;;;;;;;4979500;28;20089;-66
2023/11/23 09:13:26;;;;;;;38.38;15.75;;;;;;;;;;4975560;28;20017;-66
2023/11/23 09:15:54;;;;;;;32.85;14.45;;;;;;;;;;4977599;28;20034;-67
2023/11/23 09:18:21;;;;;;;34.28;15.40;;;;;;;;;;4973827;28;20458;-67
2023/11/23 09:20:47;;;;;;;36.97;18.08;;;;;;;;;;4990454;28;20025;-65
2023/11/23 09:23:13;;;;;;;33.08;15.95;;;;;;;;;;4980923;28;20466;-67
2023/11/23 09:25:38;;;;;;;31.70;15.68;;;;;;;;;;4975067;28;20018;-66
2023/11/23 09:28:03;;;;;;;43.33;16.90;;;;;;;;;;4972672;28;20512;-66
2023/11/23 09:30:28;;;;;;;34.42;13.10;;;;;;;;;;4979351;28;20117;-66
2023/11/23 09:32:54;;;;;;;37.93;17.47;;;;;;;;;;4991045;28;20101;-66
2023/11/23 09:35:19;;;;;;;38.17;16.67;;;;;;;;;;4988615;28;20288;-66
2023/11/23 09:37:44;;;;;;;30.50;15.05;;;;;;;;;;4989454;28;20113;-67
2023/11/23 09:40:13;;;;;;;40.63;16.50;;;;;;;;;;4979957;28;20533;-66
2023/11/23 09:42:38;;;;;;;30.27;15.27;;;;;;;;;;4974562;28;20093;-66
2023/11/23 09:45:09;;;;;;;36.05;15.43;;;;;;;;;;4976193;28;20034;-66
2023/11/23 09:47:38;;;;;;;32.60;12.82;;;;;;;;;;4983449;28;20178;-66
2023/11/23 09:50:03;;;;;;;31.30;13.30;;;;;;;;;;4987443;28;20023;-66
2023/11/23 09:52:29;;;;;;;41.95;15.60;;;;;;;;;;4983594;28;20113;-66
2023/11/23 09:54:56;;;;;;;30.70;13.95;;;;;;;;;;4987094;28;20029;-66
2023/11/23 09:57:22;;;;;;;19.63;8.23;;;;;;;;;;4989927;28;20022;-67
2023/11/23 09:59:48;;;;;;;20.45;10.18;;;;;;;;;;4972896;28;20038;-66
2023/11/23 10:02:13;;;;;;;21.48;10.55;;;;;;;;;;4976900;28;20038;-66
2023/11/23 10:04:39;;;;;;;18.80;10.52;;;;;;;;;;4976115;28;20029;-66
2023/11/23 10:07:06;;;;;;;31.63;13.80;;;;;;;;;;4992751;28;20034;-66
2023/11/23 10:09:35;;;;;;;34.53;15.07;;;;;;;;;;4985425;28;20497;-67
2023/11/23 10:12:02;;;;;;;32.50;11.83;;;;;;;;;;4986694;28;20022;-66
2023/11/23 10:14:27;;;;;;;26.75;13.23;;;;;;;;;;4977123;28;20035;-67
2023/11/23 10:16:52;;;;;;;15.27;8.00;;;;;;;;;;4978548;28;20031;-66
2023/11/23 10:19:18;;;;;;;22.30;12.20;;;;;;;;;;4977971;28;20297;-66
2023/11/23 10:21:44;;;;;;;22.58;12.25;;;;;;;;;;4984089;28;20761;-66
2023/11/23 10:24:11;;;;;;;29.63;13.13;;;;;;;;;;4979564;28;20054;-66
2023/11/23 10:26:36;;;;;;;23.98;11.15;;;;;;;;;;4982499;28;20081;-66
2023/11/23 10:29:02;;;;;;;21.77;10.43;;;;;;;;;;4978566;28;20482;-66
2023/11/23 10:31:27;;;;;;;26.67;13.02;;;;;;;;;;4978900;28;20364;-67
2023/11/23 10:33:52;;;;;;;24.17;11.88;;;;;;;;;;4974631;28;20065;-66
2023/11/23 10:36:17;;;;;;;24.03;9.80;;;;;;;;;;4987884;28;20052;-66
2023/11/23 10:38:43;;;;;;;23.27;11.65;;;;;;;;;;4983795;28;20472;-66
2023/11/23 10:41:08;;;;;;;14.20;7.40;;;;;;;;;;4988366;28;20026;-67
2023/11/23 10:43:36;;;;;;;25.15;12.02;;;;;;;;;;4980851;28;20026;-66
2023/11/23 10:46:03;;;;;;;28.05;13.40;;;;;;;;;;4984485;28;20051;-65
2023/11/23 10:48:28;;;;;;;25.38;12.05;;;;;;;;;;4986028;28;20023;-66
2023/11/23 10:50:55;;;;;;;21.08;11.07;;;;;;;;;;4977433;28;20542;-66
2023/11/23 10:53:21;;;;;;;21.98;10.00;;;;;;;;;;4979187;28;20106;-66
2023/11/23 10:55:49;;;;;;;16.40;8.10;;;;;;;;;;4989236;28;20083;-67
2023/11/23 10:58:16;;;;;;;14.57;7.20;;;;;;;;;;4987320;28;20384;-66
2023/11/23 11:00:42;;;;;;;23.88;11.57;;;;;;;;;;4988679;28;20614;-66
2023/11/23 11:03:08;;;;;;;21.95;6.97;;;;;;;;;;4974911;28;20030;-66
2023/11/23 11:05:44;;;;;;;27.60;11.15;;;;;;;;;;4979566;28;20473;-67
2023/11/23 11:08:10;;;;;;;16.83;7.45;;;;;;;;;;4981148;28;20468;-66
2023/11/23 11:10:40;;;;;;;24.40;11.50;;;;;;;;;;4983683;28;20110;-66
2023/11/23 11:13:06;;;;;;;12.45;5.88;;;;;;;;;;4988356;28;20022;-66
2023/11/23 11:15:32;;;;;;;27.10;10.00;;;;;;;;;;4981955;28;20073;-66
2023/11/23 11:18:07;;;;;;;19.00;9.90;;;;;;;;;;4992187;28;20022;-65
2023/11/23 11:20:33;;;;;;;26.48;9.52;;;;;;;;;;4977306;28;20037;-66
2023/11/23 11:22:58;;;;;;;16.40;6.63;;;;;;;;;;4975844;28;20018;-66
2023/11/23 11:25:36;;;;;;;23.03;9.03;;;;;;;;;;4982156;28;20046;-66
2023/11/23 11:28:02;;;;;;;18.15;7.97;;;;;;;;;;4990134;28;20310;-65
2023/11/23 11:30:32;;;;;;;21.25;9.35;;;;;;;;;;4989439;28;20061;-65
2023/11/23 11:32:57;;;;;;;21.70;8.80;;;;;;;;;;4985685;28;20030;-66
2023/11/23 11:35:23;;;;;;;22.30;10.03;;;;;;;;;;4984165;28;20042;-65
2023/11/23 11:37:50;;;;;;;21.60;9.32;;;;;;;;;;4976342;28;20277;-65
2023/11/23 11:40:15;;;;;;;19.05;8.30;;;;;;;;;;4984206;28;20030;-66
2023/11/23 11:42:41;;;;;;;18.23;9.82;;;;;;;;;;4990754;28;20041;-66
2023/11/23 11:45:12;;;;;;;19.38;9.45;;;;;;;;;;4980988;28;20516;-66
2023/11/23 11:47:38;;;;;;;14.93;7.65;;;;;;;;;;4977567;28;20022;-66
2023/11/23 11:50:03;;;;;;;13.30;7.43;;;;;;;;;;4981620;28;20015;-66
2023/11/23 11:52:29;;;;;;;18.02;8.15;;;;;;;;;;4983345;28;20058;-66
2023/11/23 11:54:54;;;;;;;17.20;6.15;;;;;;;;;;4978128;28;20023;-65
2023/11/23 11:57:19;;;;;;;25.45;8.38;;;;;;;;;;4984500;28;20540;-66
2023/11/23 11:59:46;;;;;;;14.43;8.43;;;;;;;;;;4979669;28;20528;-66
2023/11/23 12:02:11;;;;;;;15.13;8.20;;;;;;;;;;4984997;28;20349;-65
2023/11/23 12:04:38;;;;;;;13.43;7.13;;;;;;;;;;4988567;28;20228;-66
2023/11/23 12:07:11;;;;;;;18.52;7.18;;;;;;;;;;4993448;28;20493;-67
2023/11/23 12:09:36;;;;;;;9.52;5.18;;;;;;;;;;4990979;28;20088;-65
2023/11/23 12:12:04;;;;;;;18.15;7.65;;;;;;;;;;4991392;28;20069;-66
2023/11/23 12:14:36;;;;;;;17.58;7.97;;;;;;;;;;4993924;28;20030;-66
2023/11/23 12:17:10;;;;;;;13.35;6.78;;;;;;;;;;4990256;28;20034;-66
2023/11/23 12:19:35;;;;;;;15.70;6.90;;;;;;;;;;4989737;28;20815;-66
2023/11/23 12:22:02;;;;;;;19.83;8.15;;;;;;;;;;4992174;28;20097;-65
2023/11/23 12:24:29;;;;;;;15.38;7.57;;;;;;;;;;4991836;28;20015;-66
2023/11/23 12:26:55;;;;;;;15.25;6.72;;;;;;;;;;4995200;28;20020;-66
2023/11/23 12:29:21;;;;;;;10.82;6.30;;;;;;;;;;4992987;28;20089;-66
2023/11/23 12:31:46;;;;;;;19.00;6.53;;;;;;;;;;4991351;28;20129;-65
2023/11/23 12:34:12;;;;;;;16.65;7.45;;;;;;;;;;4985653;28;20122;-66
2023/11/23 12:36:37;;;;;;;12.67;7.77;;;;;;;;;;4991954;28;20022;-67
2023/11/23 12:39:04;;;;;;;18.47;7.70;;;;;;;;;;4992318;28;20281;-65
2023/11/23 12:41:29;;;;;;;15.27;6.97;;;;;;;;;;4980361;28;20277;-65
2023/11/23 12:43:54;;;;;;;19.17;7.63;;;;;;;;;;4970963;28;20389;-65
2023/11/23 12:46:20;;;;;;;12.25;7.07;;;;;;;;;;4971777;28;20014;-67
2023/11/23 12:48:50;;;;;;;14.30;6.35;;;;;;;;;;4977362;28;20033;-67
2023/11/23 12:51:22;;;;;;;17.40;9.18;;;;;;;;;;4974930;28;20026;-67
2023/11/23 12:53:47;;;;;;;14.07;6.90;;;;;;;;;;4979626;28;20080;-67
2023/11/23 12:56:12;;;;;;;21.73;7.82;;;;;;;;;;4976150;28;20026;-65
2023/11/23 12:58:37;;;;;;;16.90;8.27;;;;;;;;;;4973087;28;20022;-65
2023/11/23 13:01:03;;;;;;;15.05;6.85;;;;;;;;;;4972764;28;20516;-66
2023/11/23 13:03:28;;;;;;;15.30;7.75;;;;;;;;;;4992517;28;20132;-67
2023/11/23 13:05:54;;;;;;;16.88;7.28;;;;;;;;;;4989494;28;20022;-68
2023/11/23 13:08:19;;;;;;;17.52;8.60;;;;;;;;;;4991406;28;20014;-66
2023/11/23 13:10:49;;;;;;;19.42;8.02;;;;;;;;;;4988699;28;20019;-66
2023/11/23 13:13:15;;;;;;;18.90;8.27;;;;;;;;;;4986627;28;20023;-68
2023/11/23 13:15:40;;;;;;;18.10;7.18;;;;;;;;;;4988895;28;20110;-66
2023/11/23 13:18:05;;;;;;;11.98;7.18;;;;;;;;;;4989261;28;20105;-66
2023/11/23 13:20:31;;;;;;;21.98;7.68;;;;;;;;;;4991541;28;20069;-67
2023/11/23 13:22:56;;;;;;;16.10;7.32;;;;;;;;;;4990140;28;20158;-66
2023/11/23 13:25:21;;;;;;;15.48;7.60;;;;;;;;;;4986001;28;20030;-66
2023/11/23 13:27:48;;;;;;;19.95;6.90;;;;;;;;;;4987459;28;20099;-66
2023/11/23 13:30:14;;;;;;;11.85;6.75;;;;;;;;;;4984053;28;20548;-66
2023/11/23 13:32:40;;;;;;;13.50;5.53;;;;;;;;;;4987955;28;20049;-67
2023/11/23 13:35:07;;;;;;;9.80;4.97;;;;;;;;;;4987629;28;20042;-66
2023/11/23 13:37:33;;;;;;;14.43;6.93;;;;;;;;;;4974436;28;20552;-67
2023/11/23 13:39:58;;;;;;;18.60;5.93;;;;;;;;;;4975302;28;20052;-66
2023/11/23 13:42:23;;;;;;;12.68;5.55;;;;;;;;;;4977080;28;20031;-66
2023/11/23 13:44:49;;;;;;;12.77;4.80;;;;;;;;;;4980617;28;20351;-66
2023/11/23 13:47:14;;;;;;;14.45;4.57;;;;;;;;;;4981782;28;20305;-67
2023/11/23 13:49:40;;;;;;;12.55;4.57;;;;;;;;;;4983140;28;20521;-66
2023/11/23 13:52:05;;;;;;;5.18;3.10;;;;;;;;;;4985154;28;21267;-67
2023/11/23 13:54:30;;;;;;;9.70;4.75;;;;;;;;;;4987108;28;20027;-66
2023/11/23 13:56:56;;;;;;;8.68;4.03;;;;;;;;;;4985465;28;20030;-66
2023/11/23 13:59:21;;;;;;;8.63;4.07;;;;;;;;;;4985831;28;20030;-66
2023/11/23 14:01:48;;;;;;;15.43;4.63;;;;;;;;;;4982758;28;20030;-66
2023/11/23 14:04:14;;;;;;;10.80;4.55;;;;;;;;;;4982222;28;20492;-66
2023/11/23 14:06:40;;;;;;;8.00;4.15;;;;;;;;;;4980792;28;20025;-66
2023/11/23 14:09:09;;;;;;;12.68;4.72;;;;;;;;;;4980175;28;20080;-66
2023/11/23 14:11:34;;;;;;;10.13;4.43;;;;;;;;;;4981957;28;20026;-67
2023/11/23 14:14:00;;;;;;;11.93;4.45;;;;;;;;;;4979759;28;20026;-66
2023/11/23 14:16:25;;;;;;;9.80;4.10;;;;;;;;;;4985802;28;20041;-66